createdAt,value
2023-07-24T00:02:06.555Z,3.47
2023-07-24T00:04:34.143Z,3.90
2023-07-24T00:07:01.872Z,3.73
2023-07-24T00:09:30.013Z,4.87
2023-07-24T00:11:57.493Z,4.00
2023-07-24T00:14:25.024Z,4.00
2023-07-24T00:16:52.512Z,3.63
2023-07-24T00:19:20.001Z,3.97
2023-07-24T00:21:47.527Z,3.90
2023-07-24T00:24:15.056Z,3.97
2023-07-24T00:26:43.067Z,4.20
2023-07-24T00:29:10.397Z,3.80
2023-07-24T00:31:37.779Z,3.97
2023-07-24T00:34:05.412Z,3.37
2023-07-24T00:36:33.117Z,3.70
2023-07-24T00:39:00.572Z,4.07
2023-07-24T00:41:27.957Z,3.70
2023-07-24T00:43:56.009Z,3.87
2023-07-24T00:46:24.116Z,4.10
2023-07-24T00:48:52.020Z,4.00
2023-07-24T00:51:20.018Z,4.10
2023-07-24T00:53:48.113Z,4.03
2023-07-24T00:56:15.590Z,3.53
2023-07-24T00:58:42.930Z,3.80
2023-07-24T01:01:12.348Z,4.00
2023-07-24T01:03:40.376Z,4.17
2023-07-24T01:06:07.810Z,4.90
2023-07-24T01:08:35.372Z,4.70
2023-07-24T01:11:09.044Z,4.03
2023-07-24T01:13:41.429Z,3.80
2023-07-24T01:16:14.960Z,4.50
2023-07-24T01:18:45.730Z,4.57
2023-07-24T01:21:15.202Z,4.50
2023-07-24T01:23:55.916Z,4.47
2023-07-24T01:26:24.799Z,3.53
2023-07-24T01:28:52.371Z,4.17
2023-07-24T01:31:19.752Z,5.10
2023-07-24T01:33:47.190Z,4.43
2023-07-24T01:36:15.570Z,3.70
2023-07-24T01:38:43.438Z,4.20
2023-07-24T01:41:11.107Z,4.23
2023-07-24T01:43:39.235Z,4.70
2023-07-24T01:46:06.609Z,4.23
2023-07-24T01:48:33.964Z,3.63
2023-07-24T01:51:01.315Z,3.70
2023-07-24T01:53:28.711Z,4.50
2023-07-24T01:55:56.114Z,3.80
2023-07-24T01:58:23.586Z,4.30
2023-07-24T02:00:51.640Z,3.67
2023-07-24T02:03:19.296Z,5.10
2023-07-24T02:05:51.399Z,4.93
2023-07-24T02:08:18.872Z,4.10
2023-07-24T02:10:50.554Z,4.23
2023-07-24T02:13:17.957Z,4.03
2023-07-24T02:15:45.329Z,4.90
2023-07-24T02:18:13.412Z,3.80
2023-07-24T02:20:40.767Z,4.17
2023-07-24T02:23:09.932Z,3.93
2023-07-24T02:25:37.695Z,3.60
2023-07-24T02:28:05.243Z,10.87
2023-07-24T02:30:32.626Z,7.33
2023-07-24T02:33:00.003Z,5.40
2023-07-24T02:35:28.027Z,3.93
2023-07-24T02:37:55.494Z,4.00
2023-07-24T02:40:22.949Z,3.70
2023-07-24T02:42:50.284Z,4.23
2023-07-24T02:45:17.671Z,4.67
2023-07-24T02:47:45.074Z,3.50
2023-07-24T02:50:12.487Z,4.20
2023-07-24T02:52:40.515Z,4.00
2023-07-24T02:55:08.411Z,4.83
2023-07-24T02:57:35.939Z,3.77
2023-07-24T03:00:03.766Z,5.30
2023-07-24T03:02:31.305Z,4.77
2023-07-24T03:04:59.031Z,4.63
2023-07-24T03:07:26.328Z,5.53
2023-07-24T03:09:54.595Z,4.07
2023-07-24T03:12:21.927Z,5.40
2023-07-24T03:14:49.409Z,4.03
2023-07-24T03:17:16.768Z,4.00
2023-07-24T03:19:44.152Z,4.53
2023-07-24T03:22:11.847Z,4.90
2023-07-24T03:24:39.416Z,6.50
2023-07-24T03:27:07.494Z,4.80
2023-07-24T03:29:34.948Z,4.30
2023-07-24T03:32:02.302Z,3.87
2023-07-24T03:34:29.676Z,4.07
2023-07-24T03:36:57.030Z,5.10
2023-07-24T03:39:24.422Z,4.50
2023-07-24T03:41:51.751Z,4.43
2023-07-24T03:44:19.880Z,4.30
2023-07-24T03:46:47.282Z,4.97
2023-07-24T03:49:14.727Z,4.20
2023-07-24T03:51:42.185Z,4.57
2023-07-24T03:54:09.582Z,5.07
2023-07-24T03:56:36.974Z,5.60
2023-07-24T03:59:04.344Z,4.80
2023-07-24T04:01:32.415Z,4.60
2023-07-24T04:04:00.155Z,4.80
2023-07-24T04:06:27.912Z,3.97
2023-07-24T04:08:55.566Z,4.23
2023-07-24T04:11:22.958Z,5.13
2023-07-24T04:13:50.319Z,4.43
2023-07-24T04:16:17.684Z,3.70
2023-07-24T04:18:45.817Z,4.50
2023-07-24T04:21:13.315Z,5.10
2023-07-24T04:23:40.722Z,4.67
2023-07-24T04:26:08.098Z,4.80
2023-07-24T04:28:35.437Z,5.43
2023-07-24T04:31:02.966Z,4.00
2023-07-24T04:33:30.484Z,4.80
2023-07-24T04:36:00.045Z,3.67
2023-07-24T04:38:27.855Z,4.10
2023-07-24T04:40:55.252Z,5.27
2023-07-24T04:43:22.770Z,6.27
2023-07-24T04:45:50.219Z,4.57
2023-07-24T04:48:18.918Z,7.10
2023-07-24T04:50:46.749Z,4.70
2023-07-24T04:53:14.807Z,5.00
2023-07-24T04:55:42.158Z,5.30
2023-07-24T04:58:09.611Z,5.47
2023-07-24T05:00:36.956Z,4.50
2023-07-24T05:03:04.457Z,4.60
2023-07-24T05:05:32.034Z,5.27
2023-07-24T05:07:59.389Z,4.60
2023-07-24T05:10:27.595Z,4.33
2023-07-24T05:12:56.975Z,4.10
2023-07-24T05:15:24.533Z,5.10
2023-07-24T05:17:51.904Z,4.03
2023-07-24T05:20:19.281Z,4.53
2023-07-24T05:22:46.668Z,4.40
2023-07-24T05:25:14.144Z,4.43
2023-07-24T05:27:44.306Z,5.00
2023-07-24T05:30:13.189Z,5.13
2023-07-24T05:32:40.607Z,4.73
2023-07-24T05:35:08.526Z,4.73
2023-07-24T05:37:35.850Z,4.83
2023-07-24T05:40:03.405Z,4.80
2023-07-24T05:42:30.753Z,4.60
2023-07-24T05:44:59.006Z,4.90
2023-07-24T05:47:26.982Z,5.50
2023-07-24T05:49:54.797Z,4.67
2023-07-24T05:52:22.270Z,5.33
2023-07-24T05:54:49.579Z,4.30
2023-07-24T05:57:16.899Z,4.90
2023-07-24T05:59:44.319Z,5.40
2023-07-24T06:02:12.346Z,4.50
2023-07-24T06:04:39.827Z,5.10
2023-07-24T06:07:07.242Z,5.20
2023-07-24T06:09:34.574Z,4.63
2023-07-24T06:12:01.864Z,4.60
2023-07-24T06:14:29.208Z,5.50
2023-07-24T06:16:56.553Z,4.73
2023-07-24T06:19:24.680Z,4.70
2023-07-24T06:21:52.058Z,5.03
2023-07-24T06:24:19.451Z,5.80
2023-07-24T06:26:46.968Z,4.50
2023-07-24T06:29:15.081Z,5.23
2023-07-24T06:31:42.549Z,4.70
2023-07-24T06:34:09.887Z,5.03
2023-07-24T06:36:37.894Z,5.70
2023-07-24T06:39:05.286Z,4.67
2023-07-24T06:41:32.679Z,5.90
2023-07-24T06:44:00.325Z,5.00
2023-07-24T06:46:27.908Z,5.20
2023-07-24T06:48:55.648Z,5.50
2023-07-24T06:51:23.010Z,4.83
2023-07-24T06:53:51.216Z,4.93
2023-07-24T06:56:18.615Z,5.47
2023-07-24T06:58:47.190Z,5.30
2023-07-24T07:01:14.762Z,4.87
2023-07-24T07:03:42.452Z,4.80
2023-07-24T07:06:28.186Z,4.87
2023-07-24T07:08:56.837Z,4.90
2023-07-24T07:11:24.292Z,4.80
2023-07-24T07:13:51.915Z,4.90
2023-07-24T07:16:19.646Z,4.70
2023-07-24T07:18:47.048Z,5.40
2023-07-24T07:21:14.436Z,5.43
2023-07-24T07:23:41.780Z,5.00
2023-07-24T07:26:09.954Z,5.77
2023-07-24T07:28:38.054Z,4.97
2023-07-24T07:31:05.441Z,5.27
2023-07-24T07:33:32.894Z,5.10
2023-07-24T07:36:00.325Z,4.60
2023-07-24T07:38:27.765Z,5.30
2023-07-24T07:40:55.133Z,5.07
2023-07-24T07:43:23.175Z,5.47
2023-07-24T07:45:50.582Z,5.23
2023-07-24T07:48:17.971Z,6.53
2023-07-24T07:50:45.348Z,4.73
2023-07-24T07:53:12.656Z,5.23
2023-07-24T07:55:40.056Z,5.00
2023-07-24T07:58:07.397Z,5.00
2023-07-24T08:00:36.528Z,5.37
2023-07-24T08:03:04.102Z,4.90
2023-07-24T08:05:32.467Z,4.73
2023-07-24T08:07:59.871Z,5.30
2023-07-24T08:10:27.338Z,5.30
2023-07-24T08:12:54.681Z,5.23
2023-07-24T08:15:22.118Z,5.10
2023-07-24T08:17:50.188Z,5.00
2023-07-24T08:20:17.593Z,5.30
2023-07-24T08:22:45.022Z,5.37
2023-07-24T08:25:12.375Z,4.67
2023-07-24T08:27:54.388Z,4.90
2023-07-24T08:30:27.065Z,5.03
2023-07-24T08:32:55.370Z,4.70
2023-07-24T08:35:22.771Z,4.63
2023-07-24T08:37:50.145Z,5.00
2023-07-24T08:40:17.933Z,5.83
2023-07-24T08:42:45.589Z,6.13
2023-07-24T08:45:14.065Z,4.63
2023-07-24T08:47:44.674Z,5.37
2023-07-24T08:50:13.130Z,5.33
2023-07-24T08:52:42.644Z,5.20
2023-07-24T08:55:11.453Z,5.23
2023-07-24T08:57:38.891Z,4.77
2023-07-24T09:00:07.499Z,5.17
2023-07-24T09:02:35.588Z,5.47
2023-07-24T09:05:03.756Z,5.60
2023-07-24T09:07:32.708Z,5.37
2023-07-24T09:10:00.344Z,5.10
2023-07-24T09:12:27.900Z,5.60
2023-07-24T09:15:07.253Z,5.43
2023-07-24T09:17:35.882Z,5.47
2023-07-24T09:20:04.261Z,5.80
2023-07-24T09:22:34.299Z,5.43
2023-07-24T09:25:03.874Z,5.50
2023-07-24T09:27:32.467Z,5.83
2023-07-24T09:30:00.710Z,5.03
2023-07-24T09:32:29.631Z,6.40
2023-07-24T09:34:58.000Z,6.20
2023-07-24T09:37:26.963Z,5.83
2023-07-24T09:39:55.459Z,6.33
2023-07-24T09:42:33.113Z,5.57
2023-07-24T09:45:01.157Z,5.60
2023-07-24T09:47:51.406Z,5.33
2023-07-24T09:50:16.568Z,5.43
2023-07-24T09:52:45.346Z,6.20
2023-07-24T09:55:17.979Z,6.50
2023-07-24T09:57:46.055Z,7.37
2023-07-24T10:00:15.132Z,6.27
2023-07-24T10:02:43.306Z,7.23
2023-07-24T10:05:11.498Z,7.10
2023-07-24T10:07:39.440Z,7.17
2023-07-24T10:10:08.742Z,6.93
2023-07-24T10:12:37.854Z,6.80
2023-07-24T10:15:07.942Z,6.20
2023-07-24T10:17:39.339Z,6.23
2023-07-24T10:20:08.889Z,8.03
2023-07-24T10:22:38.164Z,7.20
2023-07-24T10:25:06.442Z,7.03
2023-07-24T10:27:40.694Z,8.17
2023-07-24T10:30:22.889Z,7.40
2023-07-24T10:33:03.997Z,6.90
2023-07-24T10:35:42.637Z,7.07
2023-07-24T10:38:10.845Z,7.13
2023-07-24T10:40:38.369Z,6.87
2023-07-24T10:43:11.442Z,6.67
2023-07-24T10:45:43.443Z,6.70
2023-07-24T10:48:12.106Z,6.47
2023-07-24T10:50:40.759Z,5.97
2023-07-24T10:53:09.017Z,6.20
2023-07-24T10:55:36.468Z,6.00
2023-07-24T10:58:03.988Z,6.17
2023-07-24T11:00:32.143Z,6.50
2023-07-24T11:02:59.731Z,6.60
2023-07-24T11:05:27.531Z,6.80
2023-07-24T11:07:55.567Z,7.53
2023-07-24T11:10:24.089Z,6.63
2023-07-24T11:12:51.844Z,6.20
2023-07-24T11:15:26.820Z,6.40
2023-07-24T11:17:55.087Z,6.70
2023-07-24T11:20:22.508Z,6.00
2023-07-24T11:22:49.948Z,6.30
2023-07-24T11:25:17.372Z,6.57
2023-07-24T11:27:46.971Z,6.40
2023-07-24T11:30:19.954Z,5.63
2023-07-24T11:32:49.092Z,7.27
2023-07-24T11:35:17.465Z,5.87
2023-07-24T11:37:45.042Z,5.90
2023-07-24T11:40:15.310Z,5.60
2023-07-24T11:42:44.783Z,5.90
2023-07-24T11:45:12.224Z,5.53
2023-07-24T11:47:44.452Z,5.63
2023-07-24T11:50:12.390Z,6.10
2023-07-24T11:52:43.415Z,6.00
2023-07-24T11:55:11.520Z,6.30
2023-07-24T11:57:39.186Z,6.03
2023-07-24T12:00:18.204Z,6.20
2023-07-24T12:02:45.667Z,6.30
2023-07-24T12:05:13.439Z,6.10
2023-07-24T12:07:44.567Z,6.23
2023-07-24T12:10:12.814Z,6.20
2023-07-24T12:12:41.329Z,5.73
2023-07-24T12:15:10.011Z,6.23
2023-07-24T12:17:37.756Z,6.27
2023-07-24T12:20:08.577Z,6.37
2023-07-24T12:22:36.234Z,6.40
2023-07-24T12:25:05.222Z,6.23
2023-07-24T12:27:33.141Z,6.23
2023-07-24T12:30:01.581Z,7.23
2023-07-24T12:32:29.028Z,7.50
2023-07-24T12:34:56.419Z,6.70
2023-07-24T12:37:23.858Z,7.17
2023-07-24T12:39:51.485Z,7.20
2023-07-24T12:42:19.695Z,7.77
2023-07-24T12:44:47.133Z,7.60
2023-07-24T12:47:14.563Z,7.97
2023-07-24T12:49:42.128Z,7.90
2023-07-24T12:52:09.485Z,8.17
2023-07-24T12:54:55.068Z,7.07
2023-07-24T12:57:26.607Z,6.97
2023-07-24T12:59:54.614Z,6.73
2023-07-24T13:02:22.036Z,7.50
2023-07-24T13:04:49.451Z,7.60
2023-07-24T13:07:16.887Z,6.70
2023-07-24T13:09:44.880Z,6.97
2023-07-24T13:12:12.336Z,7.20
2023-07-24T13:14:42.527Z,6.87
2023-07-24T13:17:10.419Z,6.37
2023-07-24T13:19:37.926Z,7.20
2023-07-24T13:22:05.954Z,7.33
2023-07-24T13:24:33.461Z,5.40
2023-07-24T13:27:00.843Z,7.00
2023-07-24T13:29:28.277Z,7.03
2023-07-24T13:31:56.422Z,5.93
2023-07-24T13:34:24.973Z,5.40
2023-07-24T13:36:52.497Z,5.60
2023-07-24T13:39:19.996Z,6.60
2023-07-24T13:41:47.441Z,5.70
2023-07-24T13:44:14.851Z,5.20
2023-07-24T13:46:42.230Z,5.00
2023-07-24T13:49:10.419Z,4.63
2023-07-24T13:51:37.889Z,4.20
2023-07-24T13:54:05.305Z,5.10
2023-07-24T13:56:35.466Z,5.03
2023-07-24T13:59:03.610Z,4.20
2023-07-24T14:01:31.320Z,5.23
2023-07-24T14:03:59.274Z,4.63
2023-07-24T14:06:27.691Z,4.50
2023-07-24T14:08:55.075Z,4.97
2023-07-24T14:11:25.243Z,4.50
2023-07-24T14:13:52.673Z,4.20
2023-07-24T14:16:20.139Z,4.63
2023-07-24T14:18:47.557Z,5.27
2023-07-24T14:21:14.952Z,5.83
2023-07-24T14:23:43.077Z,5.40
2023-07-24T14:26:10.484Z,6.17
2023-07-24T14:28:37.898Z,6.30
2023-07-24T14:31:05.917Z,6.20
2023-07-24T14:33:33.366Z,5.47
2023-07-24T14:36:00.776Z,6.83
2023-07-24T14:38:28.433Z,6.47
2023-07-24T14:40:57.731Z,6.80
2023-07-24T14:43:26.426Z,7.33
2023-07-24T14:45:54.000Z,5.70
2023-07-24T14:48:21.327Z,6.70
2023-07-24T14:50:49.538Z,6.53
2023-07-24T14:53:17.057Z,6.70
2023-07-24T14:55:44.666Z,6.37
2023-07-24T14:58:12.729Z,6.93
2023-07-24T15:00:40.073Z,6.60
2023-07-24T15:03:07.546Z,7.00
2023-07-24T15:05:35.081Z,7.97
2023-07-24T15:08:03.037Z,5.87
2023-07-24T15:10:30.482Z,6.30
2023-07-24T15:12:57.798Z,6.73
2023-07-24T15:15:25.908Z,6.20
2023-07-24T15:17:53.263Z,7.00
2023-07-24T15:20:20.611Z,6.00
2023-07-24T15:22:48.032Z,6.90
2023-07-24T15:25:15.325Z,7.70
2023-07-24T15:27:42.685Z,6.50
2023-07-24T15:30:10.302Z,7.23
2023-07-24T15:32:38.493Z,7.57
2023-07-24T15:35:06.771Z,7.50
2023-07-24T15:37:34.203Z,7.93
2023-07-24T15:40:01.730Z,6.97
2023-07-24T15:42:29.168Z,8.17
2023-07-24T15:44:56.560Z,7.87
2023-07-24T15:47:26.471Z,8.33
2023-07-24T15:49:54.603Z,8.40
2023-07-24T15:52:22.040Z,8.23
2023-07-24T15:54:49.499Z,7.63
2023-07-24T15:57:16.897Z,8.80
2023-07-24T15:59:44.308Z,8.10
2023-07-24T16:02:11.785Z,7.83
2023-07-24T16:04:39.227Z,8.10
2023-07-24T16:07:07.278Z,7.90
2023-07-24T16:09:34.670Z,7.90
2023-07-24T16:12:02.302Z,8.47
2023-07-24T16:14:29.657Z,8.17
2023-07-24T16:16:57.015Z,7.57
2023-07-24T16:19:24.378Z,8.40
2023-07-24T16:21:52.163Z,7.97
2023-07-24T16:24:20.994Z,8.50
2023-07-24T16:26:49.154Z,7.87
2023-07-24T16:29:16.938Z,8.30
2023-07-24T16:31:44.561Z,7.30
2023-07-24T16:34:13.013Z,8.10
2023-07-24T16:36:41.260Z,8.07
2023-07-24T16:39:08.828Z,8.10
2023-07-24T16:41:37.893Z,8.50
2023-07-24T16:44:08.149Z,7.67
2023-07-24T16:46:35.841Z,9.37
2023-07-24T16:49:03.291Z,7.77
2023-07-24T16:51:30.945Z,9.17
2023-07-24T16:53:58.505Z,9.23
2023-07-24T16:56:25.863Z,7.83
2023-07-24T16:58:53.822Z,8.70
2023-07-24T17:01:21.317Z,7.80
2023-07-24T17:03:49.457Z,8.40
2023-07-24T17:06:16.876Z,8.20
2023-07-24T17:08:44.245Z,8.50
2023-07-24T17:11:11.942Z,9.00
2023-07-24T17:13:41.397Z,9.03
2023-07-24T17:16:09.823Z,9.23
2023-07-24T17:18:37.255Z,8.37
2023-07-24T17:21:04.775Z,9.30
2023-07-24T17:23:32.180Z,8.73
2023-07-24T17:25:59.592Z,8.77
2023-07-24T17:28:27.029Z,8.43
2023-07-24T17:30:54.742Z,8.77
2023-07-24T17:33:24.503Z,8.30
2023-07-24T17:35:53.376Z,8.40
2023-07-24T17:38:20.693Z,8.30
2023-07-24T17:40:49.794Z,7.77
2023-07-24T17:43:17.432Z,9.80
2023-07-24T17:45:44.794Z,9.17
2023-07-24T17:48:12.173Z,9.53
2023-07-24T17:50:40.196Z,9.43
2023-07-24T17:53:07.569Z,9.20
2023-07-24T17:55:35.039Z,8.20
2023-07-24T17:58:02.387Z,8.10
2023-07-24T18:00:29.754Z,8.10
2023-07-24T18:02:57.380Z,7.90
2023-07-24T18:05:24.924Z,8.37
2023-07-24T18:07:58.948Z,8.30
2023-07-24T18:10:26.675Z,8.57
2023-07-24T18:12:55.854Z,8.37
2023-07-24T18:15:23.538Z,8.03
2023-07-24T18:17:51.061Z,7.30
2023-07-24T18:20:18.635Z,8.07
2023-07-24T18:22:46.573Z,7.97
2023-07-24T18:25:14.658Z,9.13
2023-07-24T18:27:42.296Z,8.30
2023-07-24T18:30:10.065Z,8.40
2023-07-24T18:32:37.464Z,8.50
2023-07-24T18:35:06.000Z,8.30
2023-07-24T18:37:33.422Z,9.13
2023-07-24T18:40:00.964Z,3.73
2023-07-24T18:42:29.271Z,2.30
2023-07-24T18:44:56.837Z,1.70
2023-07-24T18:47:24.162Z,2.90
2023-07-24T18:49:51.557Z,1.77
2023-07-24T18:52:18.938Z,2.40
2023-07-24T18:54:48.170Z,2.60
2023-07-24T18:57:15.578Z,2.00
2023-07-24T18:59:43.724Z,1.80
2023-07-24T19:02:11.269Z,2.67
2023-07-24T19:04:38.600Z,2.77
2023-07-24T19:07:06.434Z,2.77
2023-07-24T19:09:33.883Z,3.00
2023-07-24T19:12:01.966Z,2.60
2023-07-24T19:14:29.348Z,3.30
2023-07-24T19:16:57.515Z,2.10
2023-07-24T19:19:24.866Z,3.00
2023-07-24T19:21:52.531Z,2.87
2023-07-24T19:24:19.928Z,2.83
2023-07-24T19:26:48.571Z,2.40
2023-07-24T19:29:15.978Z,2.37
2023-07-24T19:31:43.354Z,2.60
2023-07-24T19:34:11.514Z,2.57
2023-07-24T19:36:38.856Z,3.17
2023-07-24T19:39:06.743Z,3.17
2023-07-24T19:41:34.118Z,2.50
2023-07-24T19:44:01.696Z,2.90
2023-07-24T19:46:29.285Z,2.70
2023-07-24T19:48:56.685Z,3.13
2023-07-24T19:51:24.714Z,3.50
2023-07-24T19:53:52.193Z,3.20
2023-07-24T19:56:19.597Z,2.73
2023-07-24T19:58:47.506Z,2.90
2023-07-24T20:01:14.808Z,3.33
2023-07-24T20:03:42.432Z,3.30
2023-07-24T20:06:11.230Z,3.33
2023-07-24T20:08:39.347Z,3.10
2023-07-24T20:11:07.116Z,2.93
2023-07-24T20:13:35.241Z,3.60
2023-07-24T20:16:03.053Z,2.80
2023-07-24T20:18:30.608Z,2.70
2023-07-24T20:20:58.050Z,3.13
2023-07-24T20:23:25.503Z,3.00
2023-07-24T20:25:53.894Z,3.60
2023-07-24T20:28:21.890Z,4.13
2023-07-24T20:30:49.909Z,3.40
2023-07-24T20:33:17.303Z,4.00
2023-07-24T20:35:46.481Z,2.90
2023-07-24T20:38:23.170Z,3.07
2023-07-24T20:40:50.667Z,4.50
2023-07-24T20:43:19.007Z,4.07
2023-07-24T20:45:46.606Z,3.77
2023-07-24T20:48:14.278Z,4.20
2023-07-24T20:50:42.107Z,3.50
2023-07-24T20:53:09.952Z,3.97
2023-07-24T20:55:37.615Z,4.30
2023-07-24T20:58:05.308Z,4.40
2023-07-24T21:00:33.454Z,4.63
2023-07-24T21:03:01.125Z,4.07
2023-07-24T21:05:28.547Z,4.10
2023-07-24T21:07:58.982Z,3.03
2023-07-24T21:10:26.336Z,3.90
2023-07-24T21:12:53.703Z,3.20
2023-07-24T21:15:21.147Z,3.43
2023-07-24T21:17:49.254Z,3.30
2023-07-24T21:20:16.952Z,3.10
2023-07-24T21:22:44.321Z,3.20
2023-07-24T21:25:11.683Z,3.30
2023-07-24T21:27:39.047Z,2.97
2023-07-24T21:30:07.848Z,3.40
2023-07-24T21:32:35.303Z,2.70
2023-07-24T21:35:03.670Z,3.47
2023-07-24T21:37:31.026Z,3.33
2023-07-24T21:39:58.358Z,3.90
2023-07-24T21:42:25.817Z,2.87
2023-07-24T21:44:53.263Z,3.43
2023-07-24T21:47:20.586Z,3.70
2023-07-24T21:49:47.967Z,3.27
2023-07-24T21:52:15.955Z,3.10
2023-07-24T21:54:43.314Z,3.73
2023-07-24T21:57:11.072Z,3.07
2023-07-24T21:59:38.451Z,2.50
2023-07-24T22:02:06.207Z,3.90
2023-07-24T22:04:33.565Z,2.87
2023-07-24T22:07:00.899Z,2.90
2023-07-24T22:09:30.734Z,3.50
2023-07-24T22:11:58.179Z,4.17
2023-07-24T22:14:25.564Z,3.10
2023-07-24T22:16:53.397Z,3.40
2023-07-24T22:19:20.979Z,3.20
2023-07-24T22:21:48.456Z,3.50
2023-07-24T22:24:15.861Z,3.50
2023-07-24T22:26:43.927Z,3.03
2023-07-24T22:29:11.320Z,4.23
2023-07-24T22:31:38.676Z,3.07
2023-07-24T22:34:06.046Z,2.90
2023-07-24T22:36:33.426Z,2.90
2023-07-24T22:39:02.784Z,4.00
2023-07-24T22:41:30.394Z,4.10
2023-07-24T22:43:58.914Z,3.73
2023-07-24T22:46:26.297Z,3.63
2023-07-24T22:48:53.746Z,3.53
2023-07-24T22:51:21.113Z,3.60
2023-07-24T22:53:49.208Z,3.97
2023-07-24T22:56:16.630Z,3.60
2023-07-24T22:59:16.840Z,3.93
2023-07-24T23:01:44.634Z,4.10
2023-07-24T23:04:12.288Z,4.00
2023-07-24T23:06:39.767Z,4.20
2023-07-24T23:09:44.285Z,3.93
2023-07-24T23:12:30.392Z,4.10
2023-07-24T23:14:58.426Z,4.03
2023-07-24T23:17:26.085Z,3.67
2023-07-24T23:19:53.494Z,4.37
2023-07-24T23:22:20.856Z,4.03
2023-07-24T23:24:48.262Z,3.80
2023-07-24T23:27:15.654Z,4.70
2023-07-24T23:29:43.325Z,3.33
2023-07-24T23:32:11.369Z,3.30
2023-07-24T23:34:38.691Z,3.40
2023-07-24T23:37:06.386Z,3.50
2023-07-24T23:39:33.780Z,3.93
2023-07-24T23:42:01.148Z,3.27
2023-07-24T23:44:29.219Z,4.07
2023-07-24T23:46:56.541Z,3.90
2023-07-24T23:49:24.661Z,4.87
2023-07-24T23:51:51.984Z,3.37
2023-07-24T23:54:19.279Z,3.90
2023-07-24T23:56:46.661Z,3.53
2023-07-24T23:59:14.077Z,3.73
